createdAt,value
2019-02-22T00:04:14.912Z,74.74
2019-02-22T00:06:41.270Z,74.89
2019-02-22T00:12:14.856Z,74.91
2019-02-22T00:14:41.098Z,75.36
2019-02-22T00:17:07.336Z,74.77
2019-02-22T00:19:33.564Z,74.52
2019-02-22T00:21:59.804Z,74.21
2019-02-22T00:24:26.027Z,74.33
2019-02-22T00:26:52.274Z,73.71
2019-02-22T00:29:18.504Z,74.22
2019-02-22T00:31:44.766Z,75.21
2019-02-22T00:34:11.042Z,75.88
2019-02-22T00:36:37.376Z,75.51
2019-02-22T00:42:17.447Z,75.25
2019-02-22T00:44:43.696Z,74.46
2019-02-22T00:47:09.930Z,74.73
2019-02-22T00:49:36.151Z,74.62
2019-02-22T00:52:02.406Z,74.33
2019-02-22T00:54:28.633Z,74.42
2019-02-22T00:56:54.880Z,75.09
2019-02-22T00:59:21.104Z,74.93
2019-02-22T01:01:47.357Z,75.06
2019-02-22T01:04:13.587Z,74.91
2019-02-22T01:06:39.830Z,74.71
2019-02-22T01:09:06.160Z,74.54
2019-02-22T01:11:32.395Z,74.56
2019-02-22T01:13:58.627Z,74.82
2019-02-22T01:16:24.855Z,74.82
2019-02-22T01:18:51.137Z,74.84
2019-02-22T01:21:17.360Z,74.79
2019-02-22T01:23:43.588Z,74.67
2019-02-22T01:26:09.831Z,74.36
2019-02-22T01:28:36.083Z,74.70
2019-02-22T01:31:02.314Z,74.58
2019-02-22T01:33:28.560Z,74.32
2019-02-22T01:35:54.787Z,74.89
2019-02-22T01:38:21.029Z,75.25
2019-02-22T01:40:47.287Z,74.91
2019-02-22T01:43:13.526Z,74.74
2019-02-22T01:45:39.751Z,75.12
2019-02-22T01:48:06.003Z,75.49
2019-02-22T01:50:32.239Z,75.29
2019-02-22T01:52:58.496Z,74.87
2019-02-22T01:55:24.725Z,74.65
2019-02-22T01:57:50.973Z,74.78
2019-02-22T02:00:17.203Z,75.06
2019-02-22T02:02:43.440Z,75.05
2019-02-22T02:05:09.669Z,75.11
2019-02-22T02:07:35.892Z,75.52
2019-02-22T02:12:55.974Z,74.92
2019-02-22T02:15:22.205Z,74.69
2019-02-22T02:17:48.454Z,74.52
2019-02-22T02:20:14.732Z,74.64
2019-02-22T02:22:40.939Z,74.99
2019-02-22T02:25:48.483Z,74.96
2019-02-22T02:28:14.721Z,74.71
2019-02-22T02:30:40.960Z,74.23
2019-02-22T02:33:07.195Z,75.11
2019-02-22T02:35:33.420Z,74.64
2019-02-22T02:37:59.668Z,73.95
2019-02-22T02:40:25.922Z,77.06
2019-02-22T02:42:52.146Z,76.05
2019-02-22T02:45:18.393Z,74.65
2019-02-22T02:47:44.614Z,74.15
2019-02-22T02:50:52.172Z,74.22
2019-02-22T02:53:18.423Z,74.31
2019-02-22T02:55:44.668Z,74.51
2019-02-22T02:58:10.929Z,74.38
2019-02-22T03:03:11.094Z,74.36
2019-02-22T03:06:18.648Z,74.25
2019-02-22T03:08:44.880Z,74.52
2019-02-22T03:11:20.146Z,74.96
2019-02-22T03:13:39.260Z,74.81
2019-02-22T03:16:05.500Z,74.69
2019-02-22T03:18:31.728Z,73.95
2019-02-22T03:20:57.979Z,74.30
2019-02-22T03:23:24.201Z,74.88
2019-02-22T03:25:50.442Z,75.00
2019-02-22T03:28:16.667Z,75.07
2019-02-22T03:30:42.924Z,74.90
2019-02-22T03:33:09.149Z,75.09
2019-02-22T03:35:35.392Z,74.87
2019-02-22T03:38:01.620Z,74.62
2019-02-22T03:40:27.875Z,75.41
2019-02-22T03:42:54.082Z,74.48
2019-02-22T03:45:20.326Z,73.91
2019-02-22T03:47:46.657Z,74.07
2019-02-22T03:50:12.937Z,73.95
2019-02-22T03:52:58.909Z,73.91
2019-02-22T03:55:25.155Z,73.81
2019-02-22T03:57:51.389Z,73.69
2019-02-22T04:00:17.640Z,74.39
2019-02-22T04:02:43.889Z,73.92
2019-02-22T04:05:10.103Z,73.70
2019-02-22T04:07:36.344Z,74.01
2019-02-22T04:10:43.895Z,73.95
2019-02-22T04:13:10.123Z,74.28
2019-02-22T04:15:36.375Z,74.46
2019-02-22T04:18:02.744Z,74.35
2019-02-22T04:20:28.985Z,74.38
2019-02-22T04:22:55.229Z,74.72
2019-02-22T04:25:21.464Z,77.23
2019-02-22T04:27:47.702Z,78.68
2019-02-22T04:30:14.023Z,74.48
2019-02-22T04:32:40.259Z,73.84
2019-02-22T04:35:06.483Z,76.72
2019-02-22T04:37:32.726Z,74.25
2019-02-22T04:39:58.957Z,73.65
2019-02-22T04:42:25.200Z,73.60
2019-02-22T04:44:51.430Z,78.79
2019-02-22T04:47:17.686Z,78.45
2019-02-22T04:49:43.919Z,78.89
2019-02-22T04:52:10.155Z,79.82
2019-02-22T04:54:36.399Z,77.77
2019-02-22T04:57:02.640Z,74.50
2019-02-22T04:59:28.873Z,73.20
2019-02-22T05:01:55.113Z,73.51
2019-02-22T05:04:21.443Z,73.42
2019-02-22T05:06:47.697Z,73.19
2019-02-22T05:09:13.935Z,73.01
2019-02-22T05:11:40.213Z,76.28
2019-02-22T05:14:06.440Z,79.01
2019-02-22T05:16:32.672Z,78.03
2019-02-22T05:18:58.911Z,77.73
2019-02-22T05:21:25.136Z,78.54
2019-02-22T05:23:51.378Z,78.47
2019-02-22T05:26:17.615Z,78.36
2019-02-22T05:28:43.851Z,78.23
2019-02-22T05:31:10.075Z,78.37
2019-02-22T05:33:36.325Z,78.20
2019-02-22T05:36:02.552Z,77.51
2019-02-22T05:38:28.792Z,77.37
2019-02-22T05:40:55.024Z,77.24
2019-02-22T05:43:21.261Z,76.95
2019-02-22T05:45:47.495Z,77.86
2019-02-22T05:48:13.735Z,77.86
2019-02-22T05:50:39.994Z,73.79
2019-02-22T05:53:06.229Z,72.91
2019-02-22T05:55:32.454Z,76.21
2019-02-22T05:57:58.702Z,78.12
2019-02-22T06:00:24.940Z,78.05
2019-02-22T06:02:51.177Z,78.26
2019-02-22T06:05:17.410Z,75.07
2019-02-22T06:07:43.634Z,77.31
2019-02-22T06:10:51.178Z,73.48
2019-02-22T06:13:17.436Z,72.81
2019-02-22T06:15:43.670Z,73.33
2019-02-22T06:21:04.281Z,73.18
2019-02-22T06:23:30.525Z,73.36
2019-02-22T06:25:56.756Z,72.48
2019-02-22T06:28:23.043Z,77.25
2019-02-22T06:30:49.349Z,75.81
2019-02-22T06:33:15.576Z,74.02
2019-02-22T06:35:41.813Z,75.49
2019-02-22T06:38:08.034Z,74.07
2019-02-22T06:40:34.276Z,73.09
2019-02-22T06:43:00.491Z,74.52
2019-02-22T06:45:26.729Z,75.52
2019-02-22T06:47:52.953Z,75.41
2019-02-22T06:50:19.200Z,73.31
2019-02-22T06:52:45.437Z,73.24
2019-02-22T06:55:11.672Z,73.34
2019-02-22T06:57:37.903Z,74.85
2019-02-22T07:00:23.892Z,74.51
2019-02-22T07:02:50.133Z,73.80
2019-02-22T07:05:16.376Z,73.42
2019-02-22T07:07:42.628Z,73.45
2019-02-22T07:10:50.173Z,73.56
2019-02-22T07:13:16.417Z,75.13
2019-02-22T07:15:42.652Z,76.71
2019-02-22T07:18:08.996Z,78.16
2019-02-22T07:20:35.210Z,78.46
2019-02-22T07:23:01.455Z,74.68
2019-02-22T07:25:27.697Z,74.27
2019-02-22T07:27:53.934Z,75.03
2019-02-22T07:30:20.164Z,75.71
2019-02-22T07:32:46.434Z,77.90
2019-02-22T07:35:14.249Z,77.72
2019-02-22T07:37:40.767Z,76.43
2019-02-22T07:40:07.116Z,77.08
2019-02-22T07:42:33.342Z,77.82
2019-02-22T07:44:59.572Z,79.50
2019-02-22T07:47:25.811Z,78.61
2019-02-22T07:49:52.048Z,78.88
2019-02-22T07:52:18.290Z,77.90
2019-02-22T07:54:44.524Z,77.33
2019-02-22T07:57:10.765Z,76.93
2019-02-22T07:59:36.988Z,76.30
2019-02-22T08:04:56.924Z,77.76
2019-02-22T08:07:23.159Z,77.20
2019-02-22T08:09:49.379Z,78.63
2019-02-22T08:12:15.620Z,78.10
2019-02-22T08:14:41.849Z,77.10
2019-02-22T08:17:08.099Z,77.16
2019-02-22T08:19:34.338Z,77.40
2019-02-22T08:22:03.337Z,77.58
2019-02-22T08:24:28.691Z,78.13
2019-02-22T08:26:54.931Z,79.33
2019-02-22T08:29:21.174Z,79.49
2019-02-22T08:31:47.424Z,79.70
2019-02-22T08:34:13.655Z,79.93
2019-02-22T08:36:39.895Z,79.95
2019-02-22T08:39:06.127Z,80.56
2019-02-22T08:41:32.369Z,80.72
2019-02-22T08:43:58.591Z,80.64
2019-02-22T08:46:24.817Z,83.91
2019-02-22T08:48:51.047Z,84.10
2019-02-22T08:51:17.279Z,86.37
2019-02-22T08:53:43.524Z,88.35
2019-02-22T08:56:09.743Z,88.44
2019-02-22T08:58:35.975Z,90.86
2019-02-22T09:01:02.204Z,90.50
2019-02-22T09:03:28.443Z,89.15
2019-02-22T09:05:54.664Z,89.57
2019-02-22T09:08:20.899Z,89.29
2019-02-22T09:10:47.131Z,89.56
2019-02-22T09:13:13.385Z,86.17
2019-02-22T09:15:39.608Z,85.65
2019-02-22T09:18:05.840Z,85.25
2019-02-22T09:20:32.075Z,86.11
2019-02-22T09:22:58.314Z,85.58
2019-02-22T09:25:24.643Z,84.48
2019-02-22T09:27:50.880Z,83.23
2019-02-22T09:30:17.107Z,82.47
2019-02-22T09:32:43.353Z,80.18
2019-02-22T09:35:50.888Z,80.43
2019-02-22T09:38:17.132Z,79.71
2019-02-22T09:40:43.368Z,79.03
2019-02-22T09:43:09.618Z,78.78
2019-02-22T09:45:35.852Z,78.33
2019-02-22T09:48:02.097Z,77.05
2019-02-22T09:50:28.331Z,76.31
2019-02-22T09:52:54.573Z,75.44
2019-02-22T09:55:20.812Z,74.24
2019-02-22T09:57:47.067Z,74.38
2019-02-22T10:00:54.620Z,73.20
2019-02-22T10:03:20.837Z,72.75
2019-02-22T10:05:47.092Z,72.43
2019-02-22T10:08:13.324Z,71.95
2019-02-22T10:10:39.563Z,72.18
2019-02-22T10:13:05.807Z,72.03
2019-02-22T10:15:32.043Z,71.41
2019-02-22T10:17:58.273Z,71.28
2019-02-22T10:20:24.508Z,71.62
2019-02-22T10:22:50.736Z,71.50
2019-02-22T10:25:16.976Z,71.46
2019-02-22T10:27:43.203Z,71.03
2019-02-22T10:30:50.741Z,70.30
2019-02-22T10:33:16.968Z,70.16
2019-02-22T10:35:43.214Z,69.93
2019-02-22T10:38:09.436Z,69.37
2019-02-22T10:40:35.685Z,68.94
2019-02-22T10:43:01.916Z,69.77
2019-02-22T10:45:28.149Z,70.05
2019-02-22T10:47:54.375Z,69.43
2019-02-22T10:50:20.611Z,69.02
2019-02-22T10:52:47.069Z,68.98
2019-02-22T10:55:13.293Z,69.13
2019-02-22T10:57:39.520Z,69.59
2019-02-22T11:00:47.121Z,69.43
2019-02-22T11:03:13.387Z,69.31
2019-02-22T11:05:39.619Z,69.38
2019-02-22T11:08:05.857Z,69.66
2019-02-22T11:10:32.089Z,69.61
2019-02-22T11:12:58.315Z,69.89
2019-02-22T11:15:24.562Z,69.69
2019-02-22T11:17:50.789Z,69.64
2019-02-22T11:20:17.052Z,69.91
2019-02-22T11:22:43.280Z,70.41
2019-02-22T11:25:29.277Z,69.98
2019-02-22T11:27:55.509Z,70.10
2019-02-22T11:30:21.750Z,70.43
2019-02-22T11:32:48.095Z,70.12
2019-02-22T11:35:14.324Z,69.70
2019-02-22T11:37:40.554Z,69.64
2019-02-22T11:40:48.129Z,69.84
2019-02-22T11:43:14.322Z,70.21
2019-02-22T11:45:40.578Z,70.51
2019-02-22T11:48:09.413Z,71.33
2019-02-22T11:50:34.960Z,71.29
2019-02-22T11:53:01.206Z,72.12
2019-02-22T11:55:27.541Z,72.05
2019-02-22T11:57:53.776Z,72.03
2019-02-22T12:00:39.783Z,72.20
2019-02-22T12:03:21.207Z,72.79
2019-02-22T12:05:34.152Z,73.21
2019-02-22T12:08:00.406Z,73.50
2019-02-22T12:10:26.640Z,73.71
2019-02-22T12:12:52.891Z,73.89
2019-02-22T12:15:19.128Z,73.85
2019-02-22T12:17:45.381Z,74.40
2019-02-22T12:20:11.620Z,75.02
2019-02-22T12:22:37.869Z,75.27
2019-02-22T12:25:45.408Z,75.78
2019-02-22T12:28:11.653Z,76.07
2019-02-22T12:30:37.885Z,75.84
2019-02-22T12:33:04.224Z,76.41
2019-02-22T12:38:37.804Z,77.12
2019-02-22T12:41:04.153Z,76.28
2019-02-22T12:43:30.405Z,76.14
2019-02-22T12:45:56.637Z,76.51
2019-02-22T12:48:22.889Z,76.35
2019-02-22T12:50:49.137Z,77.16
2019-02-22T12:53:15.379Z,76.75
2019-02-22T12:55:41.605Z,76.99
2019-02-22T12:58:07.858Z,76.89
2019-02-22T13:00:34.070Z,76.61
2019-02-22T13:03:02.335Z,76.78
2019-02-22T13:08:42.282Z,76.65
2019-02-22T13:11:08.511Z,76.95
2019-02-22T13:13:34.763Z,76.95
2019-02-22T13:16:00.991Z,76.72
2019-02-22T13:18:27.240Z,76.90
2019-02-22T13:20:53.463Z,76.42
2019-02-22T13:23:19.703Z,76.84
2019-02-22T13:25:45.927Z,76.51
2019-02-22T13:28:12.180Z,76.59
2019-02-22T13:30:38.412Z,76.90
2019-02-22T13:33:04.643Z,76.89
2019-02-22T13:35:30.874Z,77.49
2019-02-22T13:37:57.108Z,77.33
2019-02-22T13:40:23.354Z,76.84
2019-02-22T13:42:49.576Z,76.12
2019-02-22T13:45:26.244Z,76.47
2019-02-22T13:47:43.971Z,76.22
2019-02-22T13:50:29.968Z,75.75
2019-02-22T13:52:56.219Z,76.19
2019-02-22T13:55:22.461Z,75.70
2019-02-22T13:57:48.693Z,75.81
2019-02-22T14:00:56.251Z,75.72
2019-02-22T14:03:22.484Z,75.17
2019-02-22T14:05:48.719Z,75.31
2019-02-22T14:08:14.947Z,76.14
2019-02-22T14:10:41.192Z,76.06
2019-02-22T14:13:07.422Z,75.52
2019-02-22T14:15:38.094Z,75.88
2019-02-22T14:18:01.805Z,76.11
2019-02-22T14:20:28.047Z,76.37
2019-02-22T14:22:54.291Z,75.58
2019-02-22T14:25:20.539Z,76.84
2019-02-22T14:27:46.767Z,76.27
2019-02-22T14:30:54.313Z,77.38
2019-02-22T14:33:20.580Z,76.68
2019-02-22T14:35:46.820Z,77.43
2019-02-22T14:38:13.039Z,77.58
2019-02-22T14:40:39.280Z,78.28
2019-02-22T14:43:15.818Z,78.42
2019-02-22T14:45:33.660Z,79.26
2019-02-22T14:47:59.902Z,79.69
2019-02-22T14:50:26.146Z,79.95
2019-02-22T14:52:52.387Z,79.93
2019-02-22T14:55:18.647Z,80.15
2019-02-22T14:57:45.455Z,80.14
2019-02-22T15:03:13.484Z,80.05
2019-02-22T15:05:39.724Z,80.00
2019-02-22T15:08:05.953Z,80.46
2019-02-22T15:13:26.327Z,80.73
2019-02-22T15:16:12.326Z,81.58
2019-02-22T15:18:38.573Z,81.59
2019-02-22T15:21:04.811Z,82.18
2019-02-22T15:23:31.046Z,84.63
2019-02-22T15:25:57.284Z,84.23
2019-02-22T15:28:23.508Z,82.95
2019-02-22T15:30:49.764Z,83.20
2019-02-22T15:33:15.974Z,83.76
2019-02-22T15:35:42.196Z,83.30
2019-02-22T15:38:10.073Z,82.87
2019-02-22T15:40:39.210Z,82.69
2019-02-22T15:43:04.809Z,82.87
2019-02-22T15:45:31.065Z,83.10
2019-02-22T15:47:57.251Z,82.86
2019-02-22T15:50:23.479Z,83.11
2019-02-22T15:55:23.541Z,82.54
2019-02-22T15:57:49.797Z,83.20
2019-02-22T16:00:35.788Z,83.25
2019-02-22T16:03:02.033Z,83.28
2019-02-22T16:05:48.020Z,82.73
2019-02-22T16:08:14.265Z,83.18
2019-02-22T16:10:40.492Z,82.41
2019-02-22T16:13:06.737Z,82.82
2019-02-22T16:15:33.081Z,82.29
2019-02-22T16:17:59.324Z,82.54
2019-02-22T16:20:25.558Z,82.49
2019-02-22T16:22:51.807Z,82.55
2019-02-22T16:25:19.999Z,82.70
2019-02-22T16:27:46.207Z,82.77
2019-02-22T16:30:53.747Z,82.68
2019-02-22T16:33:20.003Z,82.72
2019-02-22T16:35:46.240Z,83.14
2019-02-22T16:38:12.481Z,82.64
2019-02-22T16:40:38.710Z,83.11
2019-02-22T16:43:04.951Z,83.42
2019-02-22T16:45:31.193Z,83.36
2019-02-22T16:47:57.441Z,83.42
2019-02-22T16:50:23.669Z,84.04
2019-02-22T16:52:49.923Z,84.09
2019-02-22T16:55:16.161Z,83.55
2019-02-22T16:57:42.486Z,84.10
2019-02-22T17:00:50.043Z,84.18
2019-02-22T17:03:16.286Z,84.20
2019-02-22T17:05:42.532Z,83.96
2019-02-22T17:08:08.755Z,83.47
2019-02-22T17:10:34.999Z,83.83
2019-02-22T17:13:01.234Z,83.86
2019-02-22T17:15:27.475Z,84.47
2019-02-22T17:17:53.702Z,84.43
2019-02-22T17:20:19.943Z,84.58
2019-02-22T17:22:46.165Z,84.19
2019-02-22T17:25:32.154Z,84.28
2019-02-22T17:27:58.386Z,84.87
2019-02-22T17:30:24.631Z,85.00
2019-02-22T17:32:50.858Z,84.85
2019-02-22T17:35:17.099Z,84.37
2019-02-22T17:37:43.329Z,85.05
2019-02-22T17:40:50.877Z,85.11
2019-02-22T17:43:17.109Z,85.07
2019-02-22T17:45:43.341Z,85.23
2019-02-22T17:48:09.570Z,85.85
2019-02-22T17:50:35.806Z,86.04
2019-02-22T17:53:02.050Z,86.93
2019-02-22T17:55:28.291Z,87.12
2019-02-22T17:57:54.524Z,87.39
2019-02-22T18:02:58.449Z,87.69
2019-02-22T18:05:24.687Z,88.01
2019-02-22T18:07:50.921Z,87.91
2019-02-22T18:10:17.165Z,88.17
2019-02-22T18:12:43.406Z,88.34
2019-02-22T18:15:50.963Z,88.27
2019-02-22T18:18:17.204Z,88.00
2019-02-22T18:20:43.450Z,88.18
2019-02-22T18:23:09.687Z,88.53
2019-02-22T18:25:35.923Z,88.24
2019-02-22T18:28:02.159Z,88.69
2019-02-22T18:30:28.402Z,88.77
2019-02-22T18:32:54.640Z,89.13
2019-02-22T18:35:20.879Z,88.58
2019-02-22T18:37:47.105Z,88.52
2019-02-22T18:40:54.655Z,88.62
2019-02-22T18:43:20.895Z,88.94
2019-02-22T18:45:47.145Z,89.07
2019-02-22T18:48:13.369Z,89.43
2019-02-22T18:50:39.615Z,89.17
2019-02-22T18:53:05.864Z,90.03
2019-02-22T18:55:32.117Z,89.80
2019-02-22T18:57:58.345Z,89.59
2019-02-22T19:00:24.583Z,89.82
2019-02-22T19:02:50.839Z,89.57
2019-02-22T19:05:17.050Z,89.69
2019-02-22T19:07:43.290Z,90.11
2019-02-22T19:13:22.752Z,90.20
2019-02-22T19:15:48.978Z,90.15
2019-02-22T19:18:15.248Z,90.12
2019-02-22T19:20:41.476Z,90.51
2019-02-22T19:23:07.719Z,90.83
2019-02-22T19:25:33.964Z,90.85
2019-02-22T19:28:00.203Z,90.28
2019-02-22T19:30:26.431Z,90.41
2019-02-22T19:32:52.676Z,90.80
2019-02-22T19:35:18.897Z,90.66
2019-02-22T19:37:45.140Z,90.50
2019-02-22T19:43:24.816Z,90.82
2019-02-22T19:45:51.060Z,90.55
2019-02-22T19:48:17.302Z,90.25
2019-02-22T19:50:43.535Z,90.56
2019-02-22T19:53:09.803Z,90.93
2019-02-22T19:55:36.041Z,90.76
2019-02-22T19:58:02.281Z,90.89
2019-02-22T20:00:28.503Z,90.79
2019-02-22T20:02:54.741Z,90.96
2019-02-22T20:05:20.968Z,90.44
2019-02-22T20:07:47.226Z,90.75
2019-02-22T20:13:27.279Z,90.47
2019-02-22T20:15:53.515Z,91.15
2019-02-22T20:18:19.767Z,90.71
2019-02-22T20:20:46.023Z,90.85
2019-02-22T20:23:12.255Z,90.27
2019-02-22T20:25:38.481Z,90.49
2019-02-22T20:28:04.715Z,90.70
2019-02-22T20:30:30.960Z,90.99
2019-02-22T20:32:57.203Z,90.81
2019-02-22T20:36:04.741Z,90.65
2019-02-22T20:38:30.984Z,90.29
2019-02-22T20:40:57.214Z,90.84
2019-02-22T20:43:23.457Z,90.51
2019-02-22T20:45:49.684Z,90.08
2019-02-22T20:48:15.944Z,90.61
2019-02-22T20:50:42.184Z,90.33
2019-02-22T20:53:08.445Z,91.44
2019-02-22T20:55:34.671Z,90.62
2019-02-22T20:58:00.897Z,90.51
2019-02-22T21:01:14.738Z,90.87
2019-02-22T21:03:36.592Z,91.34
2019-02-22T21:06:02.834Z,91.84
2019-02-22T21:08:29.088Z,90.33
2019-02-22T21:10:55.319Z,91.09
2019-02-22T21:13:21.590Z,91.68
2019-02-22T21:15:48.078Z,92.41
2019-02-22T21:18:16.693Z,92.17
2019-02-22T21:20:44.135Z,92.02
2019-02-22T21:23:10.368Z,91.67
2019-02-22T21:25:36.612Z,92.09
2019-02-22T21:28:02.848Z,92.12
2019-02-22T21:30:29.084Z,91.94
2019-02-22T21:32:55.318Z,92.36
2019-02-22T21:35:21.565Z,91.78
2019-02-22T21:37:47.790Z,90.84
2019-02-22T21:40:14.023Z,90.61
2019-02-22T21:42:40.260Z,91.71
2019-02-22T21:45:48.087Z,91.36
2019-02-22T21:48:14.349Z,91.51
2019-02-22T21:50:40.592Z,91.68
2019-02-22T21:53:06.834Z,91.60
2019-02-22T21:55:33.076Z,91.08
2019-02-22T21:57:59.300Z,91.39
2019-02-22T22:01:06.856Z,91.56
2019-02-22T22:03:33.091Z,92.04
2019-02-22T22:05:59.336Z,92.86
2019-02-22T22:08:25.571Z,92.58
2019-02-22T22:10:51.813Z,91.79
2019-02-22T22:13:18.058Z,91.41
2019-02-22T22:15:44.312Z,91.91
2019-02-22T22:18:10.549Z,93.01
2019-02-22T22:20:36.791Z,92.74
2019-02-22T22:23:03.027Z,91.89
2019-02-22T22:25:29.268Z,92.57
2019-02-22T22:27:55.494Z,92.00
2019-02-22T22:30:21.721Z,91.84
2019-02-22T22:32:47.957Z,93.18
2019-02-22T22:35:55.508Z,92.50
2019-02-22T22:38:21.741Z,92.62
2019-02-22T22:40:54.788Z,92.75
2019-02-22T22:43:21.016Z,92.81
2019-02-22T22:45:47.282Z,93.58
2019-02-22T22:48:13.525Z,94.29
2019-02-22T22:50:39.760Z,93.44
2019-02-22T22:53:05.999Z,93.68
2019-02-22T22:55:32.222Z,93.37
2019-02-22T22:57:58.450Z,92.17
2019-02-22T23:03:38.445Z,93.54
2019-02-22T23:06:04.722Z,94.11
2019-02-22T23:08:30.917Z,92.89
2019-02-22T23:10:57.141Z,93.13
2019-02-22T23:13:23.490Z,92.76
2019-02-22T23:15:49.735Z,93.27
2019-02-22T23:18:15.982Z,93.15
2019-02-22T23:20:42.205Z,94.12
2019-02-22T23:23:08.448Z,93.30
2019-02-22T23:25:34.675Z,93.70
2019-02-22T23:28:00.911Z,93.27
2019-02-22T23:30:27.143Z,93.35
2019-02-22T23:32:53.383Z,93.62
2019-02-22T23:35:19.612Z,94.17
2019-02-22T23:37:45.857Z,93.71
2019-02-22T23:43:19.450Z,94.42
2019-02-22T23:45:45.680Z,94.58
2019-02-22T23:48:11.917Z,94.97
2019-02-22T23:50:38.144Z,94.43
2019-02-22T23:53:04.402Z,94.63
2019-02-22T23:55:30.636Z,94.56
2019-02-22T23:57:56.878Z,94.72
